createdAt,value
2022-12-25T08:11:14.066Z,81.88
2022-12-25T08:13:41.723Z,81.41
2022-12-25T08:16:11.189Z,80.53
2022-12-25T08:18:39.819Z,80.30
2022-12-25T08:21:14.239Z,79.70
2022-12-25T08:23:45.857Z,79.16
2022-12-25T08:26:19.626Z,78.58
2022-12-25T08:28:48.204Z,78.27
2022-12-25T08:31:26.318Z,78.08
2022-12-25T08:33:58.359Z,77.44
2022-12-25T08:36:27.153Z,77.33
2022-12-25T08:39:02.128Z,76.50
2022-12-25T08:41:31.803Z,76.08
2022-12-25T08:43:59.175Z,75.67
2022-12-25T08:46:26.548Z,75.31
2022-12-25T08:48:54.325Z,74.70
2022-12-25T08:51:23.903Z,74.12
2022-12-25T08:53:57.659Z,73.91
2022-12-25T08:56:25.341Z,73.32
2022-12-25T08:58:52.651Z,72.87
2022-12-25T09:01:20.134Z,72.30
2022-12-25T09:03:47.589Z,72.06
2022-12-25T09:06:17.034Z,71.55
2022-12-25T09:08:49.135Z,71.18
2022-12-25T09:11:19.758Z,70.55
2022-12-25T09:13:48.936Z,70.70
2022-12-25T09:16:22.445Z,70.56
2022-12-25T09:18:50.854Z,70.96
2022-12-25T09:21:19.340Z,70.55
2022-12-25T09:23:46.623Z,70.64
2022-12-25T09:26:18.690Z,70.45
2022-12-25T09:28:51.209Z,70.26
2022-12-25T09:31:22.912Z,70.04
2022-12-25T09:33:51.263Z,70.14
2022-12-25T09:36:21.325Z,70.37
2022-12-25T09:38:48.891Z,70.32
2022-12-25T09:42:22.794Z,69.56
2022-12-25T09:45:14.647Z,69.82
2022-12-25T09:47:44.965Z,70.20
2022-12-25T09:50:28.970Z,69.89
2022-12-25T09:53:23.623Z,69.78
2022-12-25T09:56:27.518Z,69.35
2022-12-25T09:58:55.327Z,69.81
2022-12-25T10:02:59.570Z,69.27
2022-12-25T10:06:20.666Z,68.98
2022-12-25T10:09:35.567Z,69.24
2022-12-25T10:12:39.110Z,69.36
2022-12-25T10:15:46.835Z,68.49
2022-12-25T10:18:54.070Z,68.21
2022-12-25T10:21:23.633Z,68.30
2022-12-25T10:23:59.278Z,67.04
2022-12-25T10:26:29.861Z,66.53
2022-12-25T10:29:30.553Z,66.12
2022-12-25T10:31:58.236Z,66.07
2022-12-25T10:34:27.665Z,65.91
2022-12-25T10:36:55.316Z,65.49
2022-12-25T10:39:26.123Z,65.25
2022-12-25T10:42:46.235Z,65.00
2022-12-25T10:45:13.523Z,65.85
2022-12-25T10:47:45.008Z,65.53
2022-12-25T10:50:25.561Z,63.64
2022-12-25T10:53:06.023Z,63.14
2022-12-25T10:55:33.865Z,62.79
2022-12-25T10:58:02.251Z,63.26
2022-12-25T11:00:32.754Z,62.07
2022-12-25T11:03:00.798Z,62.58
2022-12-25T11:05:35.018Z,62.03
2022-12-25T11:08:04.012Z,61.49
2022-12-25T11:10:43.788Z,60.38
2022-12-25T11:13:29.554Z,60.12
2022-12-25T11:16:28.454Z,59.67
2022-12-25T11:18:58.102Z,59.61
2022-12-25T11:21:36.625Z,59.36
2022-12-25T11:24:26.123Z,58.71
2022-12-25T11:27:06.392Z,58.77
2022-12-25T11:30:01.921Z,57.65
2022-12-25T11:32:48.616Z,57.30
2022-12-25T11:35:18.837Z,56.84
2022-12-25T11:37:51.878Z,57.39
2022-12-25T11:40:49.440Z,56.71
2022-12-25T11:43:44.417Z,56.42
2022-12-25T11:46:45.855Z,56.91
2022-12-25T11:49:18.683Z,57.08
2022-12-25T11:51:53.670Z,56.92
2022-12-25T11:54:38.310Z,56.19
2022-12-25T11:57:07.203Z,56.46
2022-12-25T11:59:56.415Z,55.16
2022-12-25T12:02:58.870Z,55.11
2022-12-25T12:06:23.359Z,55.74
2022-12-25T12:09:01.175Z,55.45
2022-12-25T12:11:47.707Z,55.74
2022-12-25T12:14:39.577Z,55.84
2022-12-25T12:17:13.403Z,56.46
2022-12-25T12:19:40.690Z,57.02
2022-12-25T12:22:24.908Z,57.07
2022-12-25T12:25:05.063Z,57.53
2022-12-25T12:27:40.772Z,58.03
2022-12-25T12:30:33.015Z,58.64
2022-12-25T12:33:07.090Z,58.87
2022-12-25T12:35:39.297Z,59.20
2022-12-25T12:38:19.870Z,59.35
2022-12-25T12:41:01.983Z,59.25
2022-12-25T12:43:52.415Z,59.77
2022-12-25T12:46:36.008Z,59.43
2022-12-25T12:49:25.569Z,60.76
2022-12-25T12:52:34.690Z,60.08
2022-12-25T12:55:13.234Z,61.15
2022-12-25T12:57:41.744Z,60.83
2022-12-25T13:00:21.203Z,61.34
2022-12-25T13:03:17.934Z,61.18
2022-12-25T13:06:05.355Z,62.05
2022-12-25T13:09:29.918Z,61.28
2022-12-25T13:11:57.374Z,61.57
2022-12-25T13:14:25.587Z,62.05
2022-12-25T13:16:54.858Z,62.19
2022-12-25T13:19:27.532Z,62.20
2022-12-25T13:22:03.784Z,63.06
2022-12-25T13:24:37.292Z,61.96
2022-12-25T13:27:29.885Z,62.48
2022-12-25T13:29:58.601Z,62.54
2022-12-25T13:32:32.084Z,62.37
2022-12-25T13:35:00.559Z,62.44
2022-12-25T13:37:31.333Z,62.44
2022-12-25T13:40:05.063Z,62.45
2022-12-25T13:42:39.865Z,62.57
2022-12-25T13:45:26.158Z,62.66
2022-12-25T13:47:55.867Z,62.40
2022-12-25T13:50:32.319Z,62.40
2022-12-25T13:53:16.760Z,62.14
2022-12-25T13:55:54.406Z,62.46
2022-12-25T13:58:33.647Z,62.15
2022-12-25T14:01:02.855Z,62.44
2022-12-25T14:03:46.694Z,62.33
2022-12-25T14:06:28.299Z,63.02
2022-12-25T14:08:59.256Z,63.31
2022-12-25T14:11:30.859Z,62.60
2022-12-25T14:14:17.150Z,62.62
2022-12-25T14:16:50.849Z,62.71
2022-12-25T14:19:32.188Z,62.63
2022-12-25T14:22:11.145Z,63.13
2022-12-25T14:24:40.501Z,64.01
2022-12-25T14:27:26.900Z,62.65
2022-12-25T14:29:59.429Z,63.02
2022-12-25T14:32:39.228Z,62.60
2022-12-25T14:35:07.029Z,63.12
2022-12-25T14:37:36.995Z,62.60
2022-12-25T14:40:26.449Z,62.39
2022-12-25T14:43:25.809Z,62.24
2022-12-25T14:46:02.669Z,62.59
2022-12-25T14:48:33.876Z,62.57
2022-12-25T14:51:17.392Z,62.87
2022-12-25T14:53:55.289Z,62.70
2022-12-25T14:56:26.634Z,63.70
2022-12-25T14:59:00.199Z,63.18
2022-12-25T15:01:40.978Z,63.08
2022-12-25T15:04:18.155Z,63.87
2022-12-25T15:07:08.318Z,63.38
2022-12-25T15:09:36.274Z,64.11
2022-12-25T15:12:04.253Z,64.16
2022-12-25T15:14:31.579Z,63.82
2022-12-25T15:17:01.585Z,64.36
2022-12-25T15:19:38.080Z,64.72
2022-12-25T15:22:06.370Z,64.53
2022-12-25T15:24:33.801Z,65.35
2022-12-25T15:27:01.627Z,65.06
2022-12-25T15:32:24.077Z,65.06
2022-12-25T15:34:51.498Z,65.66
2022-12-25T15:37:19.544Z,65.04
2022-12-25T15:39:47.163Z,65.38
2022-12-25T15:42:21.601Z,65.07
2022-12-25T15:44:48.972Z,65.39
2022-12-25T15:47:20.181Z,65.91
2022-12-25T15:49:47.892Z,66.33
2022-12-25T15:52:17.351Z,66.01
2022-12-25T15:54:45.198Z,66.01
2022-12-25T15:57:22.642Z,66.24
2022-12-25T15:59:49.974Z,66.51
2022-12-25T16:02:21.201Z,66.56
2022-12-25T16:04:51.024Z,67.30
2022-12-25T16:07:25.002Z,67.78
2022-12-25T16:09:52.647Z,67.59
2022-12-25T16:12:20.758Z,67.62
2022-12-25T16:14:48.089Z,68.24
2022-12-25T16:17:16.654Z,67.93
2022-12-25T16:19:44.934Z,68.76
2022-12-25T16:22:23.709Z,68.58
2022-12-25T16:24:51.500Z,68.62
2022-12-25T16:27:18.867Z,68.57
2022-12-25T16:29:46.173Z,68.97
2022-12-25T16:32:15.217Z,69.03
2022-12-25T16:34:43.052Z,68.72
2022-12-25T16:37:10.472Z,68.62
2022-12-25T16:39:37.782Z,69.00
2022-12-25T16:42:05.168Z,69.27
2022-12-25T16:44:35.608Z,69.25
2022-12-25T16:47:02.884Z,69.12
2022-12-25T16:49:30.224Z,69.78
2022-12-25T16:51:57.527Z,70.72
2022-12-25T16:54:24.836Z,70.33
2022-12-25T16:56:52.170Z,70.19
2022-12-25T16:59:19.493Z,69.95
2022-12-25T17:01:46.894Z,70.25
2022-12-25T17:04:14.373Z,70.45
2022-12-25T17:06:41.749Z,70.18
2022-12-25T17:09:09.044Z,70.43
2022-12-25T17:11:36.336Z,69.88
2022-12-25T17:14:05.324Z,69.95
2022-12-25T17:16:37.129Z,69.93
2022-12-25T17:19:21.008Z,69.90
2022-12-25T17:21:48.538Z,69.62
2022-12-25T17:24:17.222Z,69.34
2022-12-25T17:26:45.089Z,69.03
2022-12-25T17:29:18.679Z,68.75
2022-12-25T17:31:49.224Z,69.57
2022-12-25T17:34:16.752Z,69.29
2022-12-25T17:36:44.106Z,69.92
2022-12-25T17:39:12.011Z,69.81
2022-12-25T17:41:39.568Z,69.66
2022-12-25T17:44:06.887Z,69.39
2022-12-25T17:46:34.267Z,69.41
2022-12-25T17:49:02.811Z,69.08
2022-12-25T17:51:31.832Z,69.02
2022-12-25T17:54:05.421Z,69.71
2022-12-25T17:56:33.854Z,69.84
2022-12-25T17:59:08.035Z,69.76
2022-12-25T18:01:39.880Z,69.82
2022-12-25T18:04:07.848Z,69.00
2022-12-25T18:06:36.986Z,68.93
2022-12-25T18:09:06.501Z,69.12
2022-12-25T18:11:36.791Z,69.20
2022-12-25T18:14:06.450Z,69.51
2022-12-25T18:16:38.493Z,69.35
2022-12-25T18:19:06.828Z,69.49
2022-12-25T18:21:34.132Z,69.71
2022-12-25T18:24:08.095Z,69.73
2022-12-25T18:26:36.931Z,70.10
2022-12-25T18:29:04.743Z,69.95
2022-12-25T18:31:32.155Z,69.88
2022-12-25T18:34:00.109Z,69.40
2022-12-25T18:36:30.171Z,69.44
2022-12-25T18:38:58.646Z,69.74
2022-12-25T18:41:28.067Z,70.24
2022-12-25T18:43:56.180Z,70.68
2022-12-25T18:46:26.435Z,70.58
2022-12-25T18:48:56.697Z,71.03
2022-12-25T18:51:25.165Z,71.18
2022-12-25T18:53:54.869Z,71.50
2022-12-25T18:56:23.590Z,71.44
2022-12-25T18:58:50.930Z,71.19
2022-12-25T19:01:24.079Z,71.17
2022-12-25T19:03:57.156Z,71.38
2022-12-25T19:06:32.620Z,71.06
2022-12-25T19:08:59.854Z,70.99
2022-12-25T19:11:27.273Z,70.68
2022-12-25T19:13:54.572Z,71.65
2022-12-25T19:16:21.919Z,71.19
2022-12-25T19:18:49.367Z,71.23
2022-12-25T19:21:16.667Z,71.00
2022-12-25T19:23:44.386Z,70.98
2022-12-25T19:26:12.287Z,70.99
2022-12-25T19:28:40.294Z,71.57
2022-12-25T19:31:11.002Z,70.91
2022-12-25T19:33:42.053Z,71.39
2022-12-25T19:36:14.917Z,71.05
2022-12-25T19:38:43.515Z,71.41
2022-12-25T19:41:19.338Z,71.14
2022-12-25T19:43:49.322Z,71.32
